Terminal Aerodrome Forecast
Issued by NWS

Home | Current Version | Previous Version | Text Only | Print | Product List | Glossary Off
Versions: 1 2 3 4 5 6 7 8 9 10 11 12 13 14

556
FTUS43 KICT 150937 AAA
TAFRSL
TAF AMD
KRSL 150937Z 1510/1606 07005KT P6SM OVC015
     FM151130 07005KT 6SM -FZRA SCT006 OVC008
      TEMPO 1512/1516 3SM FZRA OVC006=

USA.gov is the U.S. government's official web portal to all federal, state and local government web resources and services.